sensor_id;sensor_type;location;lat;lon;timestamp;temperature;humidity
13998;DHT22;7074;51.508;7.018;2023-02-01T00:00:35;7.40;99.90
13998;DHT22;7074;51.508;7.018;2023-02-01T00:03:03;7.40;99.90
13998;DHT22;7074;51.508;7.018;2023-02-01T00:05:31;7.30;99.90
13998;DHT22;7074;51.508;7.018;2023-02-01T00:07:58;7.40;99.90
13998;DHT22;7074;51.508;7.018;2023-02-01T00:10:27;7.30;99.90
13998;DHT22;7074;51.508;7.018;2023-02-01T00:12:55;7.30;99.90
13998;DHT22;7074;51.508;7.018;2023-02-01T00:15:22;7.40;99.90
13998;DHT22;7074;51.508;7.018;2023-02-01T00:17:53;7.30;99.90
13998;DHT22;7074;51.508;7.018;2023-02-01T00:20:20;7.40;99.90
13998;DHT22;7074;51.508;7.018;2023-02-01T00:22:47;7.40;99.90
13998;DHT22;7074;51.508;7.018;2023-02-01T00:25:14;7.40;99.90
13998;DHT22;7074;51.508;7.018;2023-02-01T00:27:43;7.40;99.90
13998;DHT22;7074;51.508;7.018;2023-02-01T00:30:11;7.40;99.90
13998;DHT22;7074;51.508;7.018;2023-02-01T00:32:38;7.40;99.90
13998;DHT22;7074;51.508;7.018;2023-02-01T00:35:12;7.40;99.90
13998;DHT22;7074;51.508;7.018;2023-02-01T00:37:39;7.40;99.90
13998;DHT22;7074;51.508;7.018;2023-02-01T00:40:08;7.40;99.90
13998;DHT22;7074;51.508;7.018;2023-02-01T00:42:35;7.40;99.90
13998;DHT22;7074;51.508;7.018;2023-02-01T00:45:04;7.40;99.90
13998;DHT22;7074;51.508;7.018;2023-02-01T00:47:32;7.40;99.90
13998;DHT22;7074;51.508;7.018;2023-02-01T00:49:59;7.40;99.90
13998;DHT22;7074;51.508;7.018;2023-02-01T00:52:27;7.40;99.90
13998;DHT22;7074;51.508;7.018;2023-02-01T00:54:54;7.40;99.90
13998;DHT22;7074;51.508;7.018;2023-02-01T00:57:21;7.50;99.90
13998;DHT22;7074;51.508;7.018;2023-02-01T00:59:48;7.50;99.90
13998;DHT22;7074;51.508;7.018;2023-02-01T01:02:17;7.50;99.90
13998;DHT22;7074;51.508;7.018;2023-02-01T01:04:44;7.50;99.90
13998;DHT22;7074;51.508;7.018;2023-02-01T01:07:11;7.50;99.90
13998;DHT22;7074;51.508;7.018;2023-02-01T01:09:39;7.50;99.90
13998;DHT22;7074;51.508;7.018;2023-02-01T01:12:06;7.50;99.90
13998;DHT22;7074;51.508;7.018;2023-02-01T01:14:33;7.50;99.90
13998;DHT22;7074;51.508;7.018;2023-02-01T01:17:00;7.60;99.90
13998;DHT22;7074;51.508;7.018;2023-02-01T01:19:29;7.50;99.90
13998;DHT22;7074;51.508;7.018;2023-02-01T01:21:56;7.50;99.90
13998;DHT22;7074;51.508;7.018;2023-02-01T01:24:23;7.50;99.90
13998;DHT22;7074;51.508;7.018;2023-02-01T01:26:50;7.50;99.90
13998;DHT22;7074;51.508;7.018;2023-02-01T01:29:18;7.50;99.90
13998;DHT22;7074;51.508;7.018;2023-02-01T01:31:45;7.50;99.90
13998;DHT22;7074;51.508;7.018;2023-02-01T01:34:12;7.60;99.90
13998;DHT22;7074;51.508;7.018;2023-02-01T01:36:41;7.60;99.90
13998;DHT22;7074;51.508;7.018;2023-02-01T01:39:08;7.60;99.90
13998;DHT22;7074;51.508;7.018;2023-02-01T01:41:35;7.50;99.90
13998;DHT22;7074;51.508;7.018;2023-02-01T01:47:19;7.50;99.90
13998;DHT22;7074;51.508;7.018;2023-02-01T01:49:46;7.50;99.90
13998;DHT22;7074;51.508;7.018;2023-02-01T01:52:15;7.60;99.90
13998;DHT22;7074;51.508;7.018;2023-02-01T01:54:45;7.60;99.90
13998;DHT22;7074;51.508;7.018;2023-02-01T01:57:16;7.60;99.90
13998;DHT22;7074;51.508;7.018;2023-02-01T01:59:49;7.60;99.90
13998;DHT22;7074;51.508;7.018;2023-02-01T02:02:18;7.50;99.90
13998;DHT22;7074;51.508;7.018;2023-02-01T02:04:46;7.50;99.90
13998;DHT22;7074;51.508;7.018;2023-02-01T02:07:18;7.50;99.90
13998;DHT22;7074;51.508;7.018;2023-02-01T02:09:47;7.50;99.90
13998;DHT22;7074;51.508;7.018;2023-02-01T02:12:14;7.50;99.90
13998;DHT22;7074;51.508;7.018;2023-02-01T02:14:41;7.50;99.90
13998;DHT22;7074;51.508;7.018;2023-02-01T02:17:30;7.50;99.90
13998;DHT22;7074;51.508;7.018;2023-02-01T02:20:28;7.50;99.90
13998;DHT22;7074;51.508;7.018;2023-02-01T02:26:26;7.40;99.90
13998;DHT22;7074;51.508;7.018;2023-02-01T02:29:30;7.40;99.90
13998;DHT22;7074;51.508;7.018;2023-02-01T02:32:28;7.40;99.90
13998;DHT22;7074;51.508;7.018;2023-02-01T02:35:06;7.40;99.90
13998;DHT22;7074;51.508;7.018;2023-02-01T02:37:39;7.40;99.90
13998;DHT22;7074;51.508;7.018;2023-02-01T02:40:15;7.40;99.90
13998;DHT22;7074;51.508;7.018;2023-02-01T02:42:58;7.40;99.90
13998;DHT22;7074;51.508;7.018;2023-02-01T02:45:50;7.40;99.90
13998;DHT22;7074;51.508;7.018;2023-02-01T02:48:39;7.30;99.90
13998;DHT22;7074;51.508;7.018;2023-02-01T02:51:14;7.30;99.90
13998;DHT22;7074;51.508;7.018;2023-02-01T02:54:02;7.30;99.90
13998;DHT22;7074;51.508;7.018;2023-02-01T02:56:49;7.30;99.90
13998;DHT22;7074;51.508;7.018;2023-02-01T02:59:36;7.20;99.90
13998;DHT22;7074;51.508;7.018;2023-02-01T03:02:23;7.20;99.90
13998;DHT22;7074;51.508;7.018;2023-02-01T03:05:10;7.20;99.90
13998;DHT22;7074;51.508;7.018;2023-02-01T03:07:57;7.10;99.90
13998;DHT22;7074;51.508;7.018;2023-02-01T03:10:35;7.10;99.90
13998;DHT22;7074;51.508;7.018;2023-02-01T03:13:06;7.10;99.90
13998;DHT22;7074;51.508;7.018;2023-02-01T03:15:38;7.10;99.90
13998;DHT22;7074;51.508;7.018;2023-02-01T03:18:11;7.10;99.90
13998;DHT22;7074;51.508;7.018;2023-02-01T03:20:41;7.10;99.90
13998;DHT22;7074;51.508;7.018;2023-02-01T03:23:12;7.00;99.90
13998;DHT22;7074;51.508;7.018;2023-02-01T03:25:41;7.00;99.90
13998;DHT22;7074;51.508;7.018;2023-02-01T03:28:10;7.00;99.90
13998;DHT22;7074;51.508;7.018;2023-02-01T03:30:40;7.00;99.90
13998;DHT22;7074;51.508;7.018;2023-02-01T03:33:13;7.00;99.90
13998;DHT22;7074;51.508;7.018;2023-02-01T03:35:56;7.00;99.90
13998;DHT22;7074;51.508;7.018;2023-02-01T03:38:30;7.00;99.90
13998;DHT22;7074;51.508;7.018;2023-02-01T03:41:05;6.90;99.90
13998;DHT22;7074;51.508;7.018;2023-02-01T03:43:42;6.90;99.90
13998;DHT22;7074;51.508;7.018;2023-02-01T03:46:16;6.90;99.90
13998;DHT22;7074;51.508;7.018;2023-02-01T03:48:46;6.90;99.90
13998;DHT22;7074;51.508;7.018;2023-02-01T03:51:13;7.00;99.90
13998;DHT22;7074;51.508;7.018;2023-02-01T03:53:43;7.00;99.90
13998;DHT22;7074;51.508;7.018;2023-02-01T03:56:12;6.90;99.90
13998;DHT22;7074;51.508;7.018;2023-02-01T03:58:40;7.00;99.90
13998;DHT22;7074;51.508;7.018;2023-02-01T04:01:07;7.00;99.90
13998;DHT22;7074;51.508;7.018;2023-02-01T04:03:37;6.90;99.90
13998;DHT22;7074;51.508;7.018;2023-02-01T04:06:05;7.00;99.90
13998;DHT22;7074;51.508;7.018;2023-02-01T04:08:33;6.90;99.90
13998;DHT22;7074;51.508;7.018;2023-02-01T04:11:01;6.90;99.90
13998;DHT22;7074;51.508;7.018;2023-02-01T04:13:28;7.00;99.90
13998;DHT22;7074;51.508;7.018;2023-02-01T04:15:56;7.00;99.90
13998;DHT22;7074;51.508;7.018;2023-02-01T04:18:23;7.10;99.90
13998;DHT22;7074;51.508;7.018;2023-02-01T04:20:50;7.10;99.90
13998;DHT22;7074;51.508;7.018;2023-02-01T04:23:18;7.10;99.90
13998;DHT22;7074;51.508;7.018;2023-02-01T04:25:46;7.10;99.90
13998;DHT22;7074;51.508;7.018;2023-02-01T04:28:14;7.10;99.90
13998;DHT22;7074;51.508;7.018;2023-02-01T04:30:42;7.20;99.90
13998;DHT22;7074;51.508;7.018;2023-02-01T04:33:09;7.20;99.90
13998;DHT22;7074;51.508;7.018;2023-02-01T04:35:39;7.20;99.90
13998;DHT22;7074;51.508;7.018;2023-02-01T04:38:07;7.10;99.90
13998;DHT22;7074;51.508;7.018;2023-02-01T04:40:34;7.20;99.90
13998;DHT22;7074;51.508;7.018;2023-02-01T04:43:03;7.10;99.90
13998;DHT22;7074;51.508;7.018;2023-02-01T04:45:35;7.20;99.90
13998;DHT22;7074;51.508;7.018;2023-02-01T04:48:02;7.20;99.90
13998;DHT22;7074;51.508;7.018;2023-02-01T04:50:29;7.20;99.90
13998;DHT22;7074;51.508;7.018;2023-02-01T04:52:57;7.20;99.90
13998;DHT22;7074;51.508;7.018;2023-02-01T04:55:24;7.20;99.90
13998;DHT22;7074;51.508;7.018;2023-02-01T04:57:51;7.20;99.90
13998;DHT22;7074;51.508;7.018;2023-02-01T05:00:19;7.10;99.90
13998;DHT22;7074;51.508;7.018;2023-02-01T05:02:47;7.20;99.90
13998;DHT22;7074;51.508;7.018;2023-02-01T05:05:15;7.10;99.90
13998;DHT22;7074;51.508;7.018;2023-02-01T05:07:42;7.10;99.90
13998;DHT22;7074;51.508;7.018;2023-02-01T05:10:10;7.10;99.90
13998;DHT22;7074;51.508;7.018;2023-02-01T05:12:37;7.10;99.90
13998;DHT22;7074;51.508;7.018;2023-02-01T05:15:21;7.10;99.90
13998;DHT22;7074;51.508;7.018;2023-02-01T05:17:50;7.10;99.90
13998;DHT22;7074;51.508;7.018;2023-02-01T05:20:17;7.10;99.90
13998;DHT22;7074;51.508;7.018;2023-02-01T05:22:44;7.10;99.90
13998;DHT22;7074;51.508;7.018;2023-02-01T05:25:12;7.10;99.90
13998;DHT22;7074;51.508;7.018;2023-02-01T05:27:39;7.10;99.90
13998;DHT22;7074;51.508;7.018;2023-02-01T05:30:08;7.10;99.90
13998;DHT22;7074;51.508;7.018;2023-02-01T05:32:35;7.10;99.90
13998;DHT22;7074;51.508;7.018;2023-02-01T05:35:05;7.10;99.90
13998;DHT22;7074;51.508;7.018;2023-02-01T05:37:32;7.10;99.90
13998;DHT22;7074;51.508;7.018;2023-02-01T05:40:00;7.10;99.90
13998;DHT22;7074;51.508;7.018;2023-02-01T05:42:27;7.10;99.90
13998;DHT22;7074;51.508;7.018;2023-02-01T05:44:54;7.10;99.90
13998;DHT22;7074;51.508;7.018;2023-02-01T05:47:21;7.00;99.90
13998;DHT22;7074;51.508;7.018;2023-02-01T05:49:48;6.90;99.90
13998;DHT22;7074;51.508;7.018;2023-02-01T05:52:17;6.90;99.90
13998;DHT22;7074;51.508;7.018;2023-02-01T05:54:45;6.90;99.90
13998;DHT22;7074;51.508;7.018;2023-02-01T05:57:13;6.80;99.90
13998;DHT22;7074;51.508;7.018;2023-02-01T05:59:41;6.80;99.90
13998;DHT22;7074;51.508;7.018;2023-02-01T06:02:10;6.80;99.90
13998;DHT22;7074;51.508;7.018;2023-02-01T06:04:38;6.80;99.90
13998;DHT22;7074;51.508;7.018;2023-02-01T06:07:05;6.80;99.90
13998;DHT22;7074;51.508;7.018;2023-02-01T06:09:34;6.90;99.90
13998;DHT22;7074;51.508;7.018;2023-02-01T06:12:19;6.90;99.90
13998;DHT22;7074;51.508;7.018;2023-02-01T06:15:04;6.90;99.90
13998;DHT22;7074;51.508;7.018;2023-02-01T06:17:32;6.90;99.90
13998;DHT22;7074;51.508;7.018;2023-02-01T06:19:59;7.00;99.90
13998;DHT22;7074;51.508;7.018;2023-02-01T06:22:26;7.00;99.90
13998;DHT22;7074;51.508;7.018;2023-02-01T06:24:55;7.00;99.90
13998;DHT22;7074;51.508;7.018;2023-02-01T06:27:28;7.00;99.90
13998;DHT22;7074;51.508;7.018;2023-02-01T06:30:08;7.00;99.90
13998;DHT22;7074;51.508;7.018;2023-02-01T06:32:40;7.10;99.90
13998;DHT22;7074;51.508;7.018;2023-02-01T06:35:10;7.10;99.90
13998;DHT22;7074;51.508;7.018;2023-02-01T06:37:42;7.10;99.90
13998;DHT22;7074;51.508;7.018;2023-02-01T06:40:12;7.10;99.90
13998;DHT22;7074;51.508;7.018;2023-02-01T06:42:54;7.10;99.90
13998;DHT22;7074;51.508;7.018;2023-02-01T06:45:21;7.10;99.90
13998;DHT22;7074;51.508;7.018;2023-02-01T06:47:49;7.10;99.90
13998;DHT22;7074;51.508;7.018;2023-02-01T06:50:16;7.10;99.90
13998;DHT22;7074;51.508;7.018;2023-02-01T06:52:43;7.20;99.90
13998;DHT22;7074;51.508;7.018;2023-02-01T06:55:12;7.10;99.90
13998;DHT22;7074;51.508;7.018;2023-02-01T06:57:40;7.10;99.90
13998;DHT22;7074;51.508;7.018;2023-02-01T07:00:08;7.20;99.90
13998;DHT22;7074;51.508;7.018;2023-02-01T07:02:36;7.20;99.90
13998;DHT22;7074;51.508;7.018;2023-02-01T07:05:04;7.30;99.90
13998;DHT22;7074;51.508;7.018;2023-02-01T07:07:31;7.30;99.90
13998;DHT22;7074;51.508;7.018;2023-02-01T07:09:58;7.30;99.90
13998;DHT22;7074;51.508;7.018;2023-02-01T07:12:27;7.30;99.90
13998;DHT22;7074;51.508;7.018;2023-02-01T07:14:54;7.30;99.90
13998;DHT22;7074;51.508;7.018;2023-02-01T07:17:22;7.30;99.90
13998;DHT22;7074;51.508;7.018;2023-02-01T07:19:49;7.30;99.90
13998;DHT22;7074;51.508;7.018;2023-02-01T07:22:16;7.30;99.90
13998;DHT22;7074;51.508;7.018;2023-02-01T07:24:43;7.30;99.90
13998;DHT22;7074;51.508;7.018;2023-02-01T07:27:11;7.30;99.90
13998;DHT22;7074;51.508;7.018;2023-02-01T07:29:39;7.30;99.90
13998;DHT22;7074;51.508;7.018;2023-02-01T07:32:07;7.30;99.90
13998;DHT22;7074;51.508;7.018;2023-02-01T07:34:34;7.30;99.90
13998;DHT22;7074;51.508;7.018;2023-02-01T07:37:01;7.30;99.90
13998;DHT22;7074;51.508;7.018;2023-02-01T07:39:28;7.30;99.90
13998;DHT22;7074;51.508;7.018;2023-02-01T07:41:57;7.30;99.90
13998;DHT22;7074;51.508;7.018;2023-02-01T07:44:25;7.30;99.90
13998;DHT22;7074;51.508;7.018;2023-02-01T07:46:54;7.30;99.90
13998;DHT22;7074;51.508;7.018;2023-02-01T07:49:21;7.30;99.90
13998;DHT22;7074;51.508;7.018;2023-02-01T07:51:48;7.30;99.90
13998;DHT22;7074;51.508;7.018;2023-02-01T07:54:15;7.30;99.90
13998;DHT22;7074;51.508;7.018;2023-02-01T07:56:43;7.30;99.90
13998;DHT22;7074;51.508;7.018;2023-02-01T07:59:10;7.40;99.90
13998;DHT22;7074;51.508;7.018;2023-02-01T08:01:38;7.40;99.90
13998;DHT22;7074;51.508;7.018;2023-02-01T08:04:05;7.30;99.90
13998;DHT22;7074;51.508;7.018;2023-02-01T08:06:33;7.40;99.90
13998;DHT22;7074;51.508;7.018;2023-02-01T08:09:02;7.40;99.90
13998;DHT22;7074;51.508;7.018;2023-02-01T08:11:30;7.40;99.90
13998;DHT22;7074;51.508;7.018;2023-02-01T08:13:58;7.40;99.90
13998;DHT22;7074;51.508;7.018;2023-02-01T08:16:26;7.40;99.90
13998;DHT22;7074;51.508;7.018;2023-02-01T08:18:53;7.40;99.90
13998;DHT22;7074;51.508;7.018;2023-02-01T08:21:24;7.40;99.90
13998;DHT22;7074;51.508;7.018;2023-02-01T08:23:52;7.50;99.90
13998;DHT22;7074;51.508;7.018;2023-02-01T08:26:23;7.50;99.90
13998;DHT22;7074;51.508;7.018;2023-02-01T08:28:52;7.50;99.90
13998;DHT22;7074;51.508;7.018;2023-02-01T08:31:22;7.50;99.90
13998;DHT22;7074;51.508;7.018;2023-02-01T08:33:51;7.50;99.90
13998;DHT22;7074;51.508;7.018;2023-02-01T08:36:18;7.50;99.90
13998;DHT22;7074;51.508;7.018;2023-02-01T08:38:47;7.50;99.90
13998;DHT22;7074;51.508;7.018;2023-02-01T08:41:17;7.50;99.90
13998;DHT22;7074;51.508;7.018;2023-02-01T08:43:45;7.50;99.90
13998;DHT22;7074;51.508;7.018;2023-02-01T08:46:13;7.50;99.90
13998;DHT22;7074;51.508;7.018;2023-02-01T08:48:41;7.50;99.90
13998;DHT22;7074;51.508;7.018;2023-02-01T08:51:12;7.60;99.90
13998;DHT22;7074;51.508;7.018;2023-02-01T08:53:40;7.60;99.90
13998;DHT22;7074;51.508;7.018;2023-02-01T08:56:11;7.60;99.90
13998;DHT22;7074;51.508;7.018;2023-02-01T08:58:39;7.60;99.90
13998;DHT22;7074;51.508;7.018;2023-02-01T09:01:09;7.70;99.90
13998;DHT22;7074;51.508;7.018;2023-02-01T09:03:36;7.60;99.90
13998;DHT22;7074;51.508;7.018;2023-02-01T09:06:06;7.60;99.90
13998;DHT22;7074;51.508;7.018;2023-02-01T09:08:34;7.60;99.90
13998;DHT22;7074;51.508;7.018;2023-02-01T09:11:04;7.60;99.90
13998;DHT22;7074;51.508;7.018;2023-02-01T09:13:33;7.60;99.90
13998;DHT22;7074;51.508;7.018;2023-02-01T09:16:01;7.60;99.90
13998;DHT22;7074;51.508;7.018;2023-02-01T09:18:31;7.60;99.90
13998;DHT22;7074;51.508;7.018;2023-02-01T09:21:03;7.70;99.90
13998;DHT22;7074;51.508;7.018;2023-02-01T09:23:30;7.70;99.90
13998;DHT22;7074;51.508;7.018;2023-02-01T09:25:59;7.70;99.90
13998;DHT22;7074;51.508;7.018;2023-02-01T09:28:26;7.70;99.90
13998;DHT22;7074;51.508;7.018;2023-02-01T09:30:57;7.70;99.90
13998;DHT22;7074;51.508;7.018;2023-02-01T09:33:26;7.70;99.90
13998;DHT22;7074;51.508;7.018;2023-02-01T09:35:57;7.70;99.90
13998;DHT22;7074;51.508;7.018;2023-02-01T09:38:25;7.70;99.90
13998;DHT22;7074;51.508;7.018;2023-02-01T09:40:56;7.70;99.90
13998;DHT22;7074;51.508;7.018;2023-02-01T09:43:34;7.70;99.90
13998;DHT22;7074;51.508;7.018;2023-02-01T09:46:18;7.70;99.90
13998;DHT22;7074;51.508;7.018;2023-02-01T09:48:47;7.70;99.90
13998;DHT22;7074;51.508;7.018;2023-02-01T09:51:19;7.70;99.90
13998;DHT22;7074;51.508;7.018;2023-02-01T09:53:58;7.70;99.90
13998;DHT22;7074;51.508;7.018;2023-02-01T09:56:33;7.80;99.90
13998;DHT22;7074;51.508;7.018;2023-02-01T09:59:06;7.80;99.90
13998;DHT22;7074;51.508;7.018;2023-02-01T10:01:37;7.90;99.90
13998;DHT22;7074;51.508;7.018;2023-02-01T10:04:07;7.90;99.90
13998;DHT22;7074;51.508;7.018;2023-02-01T10:06:51;8.00;99.90
13998;DHT22;7074;51.508;7.018;2023-02-01T10:09:41;8.00;99.90
13998;DHT22;7074;51.508;7.018;2023-02-01T10:12:37;8.00;99.90
13998;DHT22;7074;51.508;7.018;2023-02-01T10:15:18;8.00;99.90
13998;DHT22;7074;51.508;7.018;2023-02-01T10:18:05;8.10;99.90
13998;DHT22;7074;51.508;7.018;2023-02-01T10:20:48;8.20;99.90
13998;DHT22;7074;51.508;7.018;2023-02-01T10:26:24;8.20;99.90
13998;DHT22;7074;51.508;7.018;2023-02-01T10:28:54;8.20;99.90
13998;DHT22;7074;51.508;7.018;2023-02-01T10:31:26;8.20;99.90
13998;DHT22;7074;51.508;7.018;2023-02-01T10:33:58;8.20;99.90
13998;DHT22;7074;51.508;7.018;2023-02-01T10:36:31;8.20;99.90
13998;DHT22;7074;51.508;7.018;2023-02-01T10:38:59;8.30;99.90
13998;DHT22;7074;51.508;7.018;2023-02-01T10:41:32;8.20;99.90
13998;DHT22;7074;51.508;7.018;2023-02-01T10:44:03;8.20;99.90
13998;DHT22;7074;51.508;7.018;2023-02-01T10:46:32;8.20;99.90
13998;DHT22;7074;51.508;7.018;2023-02-01T10:49:04;8.20;99.90
13998;DHT22;7074;51.508;7.018;2023-02-01T10:51:40;8.20;99.90
13998;DHT22;7074;51.508;7.018;2023-02-01T10:54:14;8.30;99.90
13998;DHT22;7074;51.508;7.018;2023-02-01T10:56:44;8.30;99.90
13998;DHT22;7074;51.508;7.018;2023-02-01T11:03:21;8.30;99.90
13998;DHT22;7074;51.508;7.018;2023-02-01T11:05:55;8.30;99.90
13998;DHT22;7074;51.508;7.018;2023-02-01T11:08:23;8.20;99.90
13998;DHT22;7074;51.508;7.018;2023-02-01T11:10:58;8.20;99.90
13998;DHT22;7074;51.508;7.018;2023-02-01T11:13:29;8.30;99.90
13998;DHT22;7074;51.508;7.018;2023-02-01T11:16:02;8.30;99.90
13998;DHT22;7074;51.508;7.018;2023-02-01T11:18:32;8.40;99.90
13998;DHT22;7074;51.508;7.018;2023-02-01T11:21:06;8.40;99.90
13998;DHT22;7074;51.508;7.018;2023-02-01T11:23:35;8.40;99.90
13998;DHT22;7074;51.508;7.018;2023-02-01T11:26:11;8.40;99.90
13998;DHT22;7074;51.508;7.018;2023-02-01T11:28:40;8.40;99.90
13998;DHT22;7074;51.508;7.018;2023-02-01T11:31:10;8.40;99.90
13998;DHT22;7074;51.508;7.018;2023-02-01T11:33:47;8.50;99.90
13998;DHT22;7074;51.508;7.018;2023-02-01T11:36:20;8.50;99.90
13998;DHT22;7074;51.508;7.018;2023-02-01T11:38:53;8.50;99.90
13998;DHT22;7074;51.508;7.018;2023-02-01T11:41:23;8.60;99.90
13998;DHT22;7074;51.508;7.018;2023-02-01T11:43:56;8.50;99.90
13998;DHT22;7074;51.508;7.018;2023-02-01T11:46:29;8.50;99.90
13998;DHT22;7074;51.508;7.018;2023-02-01T11:48:57;8.50;99.90
13998;DHT22;7074;51.508;7.018;2023-02-01T11:51:52;8.50;99.90
13998;DHT22;7074;51.508;7.018;2023-02-01T11:57:26;8.40;99.90
13998;DHT22;7074;51.508;7.018;2023-02-01T12:00:05;8.30;99.90
13998;DHT22;7074;51.508;7.018;2023-02-01T12:02:55;8.30;99.90
13998;DHT22;7074;51.508;7.018;2023-02-01T12:05:31;8.20;99.90
13998;DHT22;7074;51.508;7.018;2023-02-01T12:08:26;8.10;99.90
13998;DHT22;7074;51.508;7.018;2023-02-01T12:11:08;8.10;99.90
13998;DHT22;7074;51.508;7.018;2023-02-01T12:13:47;8.20;99.90
13998;DHT22;7074;51.508;7.018;2023-02-01T12:16:27;8.10;99.90
13998;DHT22;7074;51.508;7.018;2023-02-01T12:19:17;8.10;99.90
13998;DHT22;7074;51.508;7.018;2023-02-01T12:21:59;8.10;99.90
13998;DHT22;7074;51.508;7.018;2023-02-01T12:28:19;8.20;99.90
13998;DHT22;7074;51.508;7.018;2023-02-01T12:31:09;8.20;99.90
13998;DHT22;7074;51.508;7.018;2023-02-01T12:33:48;8.10;99.90
13998;DHT22;7074;51.508;7.018;2023-02-01T12:36:25;8.10;99.90
13998;DHT22;7074;51.508;7.018;2023-02-01T12:39:08;8.10;99.90
13998;DHT22;7074;51.508;7.018;2023-02-01T12:56:11;8.20;99.90
13998;DHT22;7074;51.508;7.018;2023-02-01T12:58:44;8.30;99.90
13998;DHT22;7074;51.508;7.018;2023-02-01T13:01:17;8.30;99.90
13998;DHT22;7074;51.508;7.018;2023-02-01T13:04:01;8.40;99.90
13998;DHT22;7074;51.508;7.018;2023-02-01T13:06:48;8.40;99.90
13998;DHT22;7074;51.508;7.018;2023-02-01T13:09:23;8.40;99.90
13998;DHT22;7074;51.508;7.018;2023-02-01T13:12:30;8.50;99.90
13998;DHT22;7074;51.508;7.018;2023-02-01T13:15:33;8.40;99.90
13998;DHT22;7074;51.508;7.018;2023-02-01T13:18:05;8.50;99.90
13998;DHT22;7074;51.508;7.018;2023-02-01T13:20:39;8.50;99.90
13998;DHT22;7074;51.508;7.018;2023-02-01T13:23:21;8.50;99.90
13998;DHT22;7074;51.508;7.018;2023-02-01T13:26:12;8.50;99.90
13998;DHT22;7074;51.508;7.018;2023-02-01T13:28:45;8.50;99.90
13998;DHT22;7074;51.508;7.018;2023-02-01T13:31:41;8.60;99.90
13998;DHT22;7074;51.508;7.018;2023-02-01T13:34:38;8.60;99.90
13998;DHT22;7074;51.508;7.018;2023-02-01T13:37:40;8.50;99.90
13998;DHT22;7074;51.508;7.018;2023-02-01T13:40:31;8.60;99.90
13998;DHT22;7074;51.508;7.018;2023-02-01T13:43:13;8.60;99.90
13998;DHT22;7074;51.508;7.018;2023-02-01T13:46:05;8.70;99.90
13998;DHT22;7074;51.508;7.018;2023-02-01T13:48:45;8.70;99.90
13998;DHT22;7074;51.508;7.018;2023-02-01T13:51:32;8.70;99.90
13998;DHT22;7074;51.508;7.018;2023-02-01T13:54:02;8.80;99.90
13998;DHT22;7074;51.508;7.018;2023-02-01T13:56:40;8.80;99.90
13998;DHT22;7074;51.508;7.018;2023-02-01T14:02:50;8.80;99.90
13998;DHT22;7074;51.508;7.018;2023-02-01T14:11:43;8.90;99.90
13998;DHT22;7074;51.508;7.018;2023-02-01T14:14:49;8.90;99.90
13998;DHT22;7074;51.508;7.018;2023-02-01T14:17:35;8.80;99.90
13998;DHT22;7074;51.508;7.018;2023-02-01T14:20:39;8.90;99.90
13998;DHT22;7074;51.508;7.018;2023-02-01T14:23:12;8.90;99.90
13998;DHT22;7074;51.508;7.018;2023-02-01T14:25:41;8.80;99.90
13998;DHT22;7074;51.508;7.018;2023-02-01T14:28:19;8.90;99.90
13998;DHT22;7074;51.508;7.018;2023-02-01T14:30:51;8.90;99.90
13998;DHT22;7074;51.508;7.018;2023-02-01T14:33:26;8.90;99.90
13998;DHT22;7074;51.508;7.018;2023-02-01T14:36:24;8.90;99.90
13998;DHT22;7074;51.508;7.018;2023-02-01T14:38:52;8.90;99.90
13998;DHT22;7074;51.508;7.018;2023-02-01T14:41:32;8.90;99.90
13998;DHT22;7074;51.508;7.018;2023-02-01T14:44:33;8.90;99.90
13998;DHT22;7074;51.508;7.018;2023-02-01T14:47:31;8.90;99.90
13998;DHT22;7074;51.508;7.018;2023-02-01T14:52:51;9.00;99.90
13998;DHT22;7074;51.508;7.018;2023-02-01T14:55:24;9.00;99.90
13998;DHT22;7074;51.508;7.018;2023-02-01T14:57:59;9.00;99.90
13998;DHT22;7074;51.508;7.018;2023-02-01T15:00:31;9.10;99.90
13998;DHT22;7074;51.508;7.018;2023-02-01T15:06:39;9.10;99.90
13998;DHT22;7074;51.508;7.018;2023-02-01T15:09:12;9.00;99.90
13998;DHT22;7074;51.508;7.018;2023-02-01T15:11:57;9.00;99.90
13998;DHT22;7074;51.508;7.018;2023-02-01T15:14:26;9.10;99.90
13998;DHT22;7074;51.508;7.018;2023-02-01T15:16:56;9.00;99.90
13998;DHT22;7074;51.508;7.018;2023-02-01T15:19:27;9.10;99.90
13998;DHT22;7074;51.508;7.018;2023-02-01T15:22:18;9.10;99.90
13998;DHT22;7074;51.508;7.018;2023-02-01T15:24:52;9.10;99.90
13998;DHT22;7074;51.508;7.018;2023-02-01T15:27:20;9.10;99.90
13998;DHT22;7074;51.508;7.018;2023-02-01T15:29:50;9.20;99.90
13998;DHT22;7074;51.508;7.018;2023-02-01T15:32:29;9.20;99.90
13998;DHT22;7074;51.508;7.018;2023-02-01T15:35:02;9.10;99.90
13998;DHT22;7074;51.508;7.018;2023-02-01T15:37:42;9.20;99.90
13998;DHT22;7074;51.508;7.018;2023-02-01T15:40:51;9.20;99.90
13998;DHT22;7074;51.508;7.018;2023-02-01T15:43:24;9.20;99.90
13998;DHT22;7074;51.508;7.018;2023-02-01T15:45:58;9.10;99.90
13998;DHT22;7074;51.508;7.018;2023-02-01T15:48:34;9.10;99.90
13998;DHT22;7074;51.508;7.018;2023-02-01T15:51:03;9.10;99.90
13998;DHT22;7074;51.508;7.018;2023-02-01T15:53:30;9.10;99.90
13998;DHT22;7074;51.508;7.018;2023-02-01T15:56:02;9.20;99.90
13998;DHT22;7074;51.508;7.018;2023-02-01T15:58:56;9.20;99.90
13998;DHT22;7074;51.508;7.018;2023-02-01T16:01:25;9.10;99.90
13998;DHT22;7074;51.508;7.018;2023-02-01T16:04:04;9.20;99.90
13998;DHT22;7074;51.508;7.018;2023-02-01T16:06:32;9.10;99.90
13998;DHT22;7074;51.508;7.018;2023-02-01T16:09:11;9.20;99.90
13998;DHT22;7074;51.508;7.018;2023-02-01T16:11:51;9.20;99.90
13998;DHT22;7074;51.508;7.018;2023-02-01T16:14:20;9.20;99.90
13998;DHT22;7074;51.508;7.018;2023-02-01T16:16:56;9.20;99.90
13998;DHT22;7074;51.508;7.018;2023-02-01T16:19:24;9.10;99.90
13998;DHT22;7074;51.508;7.018;2023-02-01T16:21:55;9.20;99.90
13998;DHT22;7074;51.508;7.018;2023-02-01T16:24:24;9.10;99.90
13998;DHT22;7074;51.508;7.018;2023-02-01T16:26:53;9.10;99.90
13998;DHT22;7074;51.508;7.018;2023-02-01T16:29:21;9.10;99.90
13998;DHT22;7074;51.508;7.018;2023-02-01T16:31:49;9.00;99.90
13998;DHT22;7074;51.508;7.018;2023-02-01T16:38:03;9.00;99.90
13998;DHT22;7074;51.508;7.018;2023-02-01T16:40:34;8.90;99.90
13998;DHT22;7074;51.508;7.018;2023-02-01T16:43:11;8.90;99.90
13998;DHT22;7074;51.508;7.018;2023-02-01T16:45:46;8.80;99.90
13998;DHT22;7074;51.508;7.018;2023-02-01T16:48:20;8.80;99.90
13998;DHT22;7074;51.508;7.018;2023-02-01T16:50:50;8.80;99.90
13998;DHT22;7074;51.508;7.018;2023-02-01T16:53:25;8.70;99.90
13998;DHT22;7074;51.508;7.018;2023-02-01T16:55:54;8.70;99.90
13998;DHT22;7074;51.508;7.018;2023-02-01T16:58:25;8.70;99.90
13998;DHT22;7074;51.508;7.018;2023-02-01T17:00:55;8.70;99.90
13998;DHT22;7074;51.508;7.018;2023-02-01T17:03:22;8.70;99.90
13998;DHT22;7074;51.508;7.018;2023-02-01T17:06:18;8.70;99.90
13998;DHT22;7074;51.508;7.018;2023-02-01T17:08:50;8.70;99.90
13998;DHT22;7074;51.508;7.018;2023-02-01T17:11:19;8.80;99.90
13998;DHT22;7074;51.508;7.018;2023-02-01T17:14:01;8.80;99.90
13998;DHT22;7074;51.508;7.018;2023-02-01T17:16:34;8.90;99.90
13998;DHT22;7074;51.508;7.018;2023-02-01T17:19:06;8.90;99.90
13998;DHT22;7074;51.508;7.018;2023-02-01T17:21:41;8.90;99.90
13998;DHT22;7074;51.508;7.018;2023-02-01T17:24:10;8.70;99.90
13998;DHT22;7074;51.508;7.018;2023-02-01T17:26:41;8.70;99.90
13998;DHT22;7074;51.508;7.018;2023-02-01T17:29:13;8.80;99.90
13998;DHT22;7074;51.508;7.018;2023-02-01T17:34:40;8.90;99.90
13998;DHT22;7074;51.508;7.018;2023-02-01T17:39:58;8.90;99.90